Time;durP1;ratioP1;P1;durP2;ratioP2;P2;SDS_P1;SDS_P2;PMS_P1;PMS_P2;Temp;Humidity;BMP_temperature;BMP_pressure;BME280_temperature;BME280_humidity;BME280_pressure;Samples;Min_cycle;Max_cycle;Signal;HPM_P1;HPM_P2
2022/02/24 00:04:17;;;;;;;42.40;17.10;;;;;;;4.29;56.82;99898.08;231212;1228;138956;-59
2022/02/24 00:09:21;;;;;;;42.50;18.00;;;;;;;4.28;56.92;99892.45;231146;1228;139710;-59
2022/02/24 00:14:23;;;;;;;40.20;17.30;;;;;;;4.28;57.17;99894.23;231161;1228;141036;-58
2022/02/24 00:19:26;;;;;;;38.40;16.40;;;;;;;4.31;57.18;99888.89;231307;1229;139182;-58
2022/02/24 00:24:29;;;;;;;39.40;17.00;;;;;;;4.31;57.12;99885.36;231208;1228;139059;-58
2022/02/24 00:29:32;;;;;;;43.10;17.50;;;;;;;4.30;57.07;99886.98;231145;1229;138860;-60
2022/02/24 00:34:35;;;;;;;46.40;18.00;;;;;;;4.30;57.16;99884.35;231148;1228;139223;-57
2022/02/24 00:39:39;;;;;;;44.60;18.80;;;;;;;4.30;57.23;99877.69;231178;1228;139404;-60
2022/02/24 00:44:42;;;;;;;50.90;18.30;;;;;;;4.27;57.16;99872.63;231194;1230;139003;-59
2022/02/24 00:49:47;;;;;;;;;;;;;;;4.28;57.20;99870.16;231301;1228;138842;-59
2022/02/24 00:54:51;;;;;;;42.70;18.60;;;;;;;4.25;57.20;99859.70;231274;1229;125211;-59
2022/02/24 00:59:54;;;;;;;45.40;19.40;;;;;;;4.19;57.12;99856.49;231180;1228;139400;-59
2022/02/24 01:04:57;;;;;;;44.20;19.70;;;;;;;4.13;57.21;99850.15;231331;1228;139681;-59
2022/02/24 01:10:01;;;;;;;43.60;19.80;;;;;;;4.11;57.33;99851.59;231150;1230;138581;-61
2022/02/24 01:15:07;;;;;;;46.40;20.50;;;;;;;4.12;57.33;99854.02;231231;1228;139491;-59
2022/02/24 01:20:11;;;;;;;188.90;97.30;;;;;;;4.12;57.61;99847.89;231353;1230;139854;-60
2022/02/24 01:25:14;;;;;;;54.80;23.00;;;;;;;4.21;57.92;99841.86;231270;1229;138953;-60
2022/02/24 01:30:17;;;;;;;48.00;20.30;;;;;;;4.17;57.42;99842.52;231282;1230;139493;-60
2022/02/24 01:35:20;;;;;;;56.90;23.60;;;;;;;4.09;57.41;99844.09;231210;1230;139864;-60
2022/02/24 01:40:23;;;;;;;48.20;21.90;;;;;;;4.02;57.63;99851.23;231234;1230;139465;-60
2022/02/24 01:45:27;;;;;;;48.10;22.90;;;;;;;3.99;57.61;99850.61;231125;1229;139069;-60
2022/02/24 01:50:30;;;;;;;49.40;22.80;;;;;;;3.93;57.59;99839.52;231261;1229;138665;-58
2022/02/24 01:55:33;;;;;;;49.80;22.00;;;;;;;3.90;57.68;99835.20;231390;1229;139359;-60
2022/02/24 02:00:37;;;;;;;51.60;22.80;;;;;;;3.83;57.70;99838.67;231152;1230;139845;-59
2022/02/24 02:05:43;;;;;;;49.70;22.30;;;;;;;3.73;57.80;99845.40;231209;1229;141738;-58
2022/02/24 02:10:46;;;;;;;49.00;20.70;;;;;;;3.65;57.78;99845.92;231238;1228;138325;-59
2022/02/24 02:15:51;;;;;;;49.00;22.60;;;;;;;3.55;57.80;99845.77;231260;1230;139708;-58
2022/02/24 02:20:55;;;;;;;49.00;22.40;;;;;;;3.53;58.03;99852.30;231276;1228;139155;-56
2022/02/24 02:25:59;;;;;;;49.20;21.70;;;;;;;3.53;58.22;99859.67;231409;1230;139544;-59
2022/02/24 02:31:02;;;;;;;56.30;24.10;;;;;;;3.51;58.19;99855.69;231291;1230;139188;-57
2022/02/24 02:36:05;;;;;;;50.90;23.40;;;;;;;3.45;58.25;99852.27;231273;1229;139213;-60
2022/02/24 02:41:08;;;;;;;51.10;23.50;;;;;;;3.39;58.19;99857.67;231276;1230;140567;-59
2022/02/24 02:46:11;;;;;;;54.80;22.80;;;;;;;3.24;58.21;99859.37;231272;1230;139381;-58
2022/02/24 02:51:14;;;;;;;55.90;23.40;;;;;;;3.19;58.52;99857.34;231250;1230;139523;-57
2022/02/24 02:56:19;;;;;;;57.80;23.50;;;;;;;3.18;58.58;99857.90;231296;1229;138937;-57
2022/02/24 03:01:22;;;;;;;53.00;22.90;;;;;;;3.13;58.75;99864.48;231386;1229;138927;-58
2022/02/24 03:06:26;;;;;;;51.10;24.00;;;;;;;3.10;59.07;99861.21;231232;1229;139143;-61
2022/02/24 03:11:28;;;;;;;54.60;23.70;;;;;;;3.10;58.89;99856.13;231255;1229;140027;-60
2022/02/24 03:16:32;;;;;;;57.40;24.10;;;;;;;3.03;58.87;99851.16;231241;1229;139338;-58
2022/02/24 03:21:35;;;;;;;50.90;23.70;;;;;;;2.94;58.89;99848.36;231245;1229;140090;-60
2022/02/24 03:26:39;;;;;;;50.20;23.60;;;;;;;2.83;59.07;99848.71;231237;1229;138653;-58
2022/02/24 03:31:43;;;;;;;59.80;24.00;;;;;;;2.75;59.01;99854.30;231385;1229;138732;-59
2022/02/24 03:36:47;;;;;;;53.30;23.20;;;;;;;2.70;59.11;99849.66;231347;1228;139448;-60
2022/02/24 03:41:51;;;;;;;48.20;23.20;;;;;;;2.63;59.14;99844.52;231242;1229;138955;-61
2022/02/24 03:46:54;;;;;;;58.20;26.00;;;;;;;2.55;59.22;99841.14;231237;1229;211014;-61
2022/02/24 03:52:18;;;;;;;64.90;28.70;;;;;;;2.60;60.04;99839.30;231237;1228;139316;-63
2022/02/24 03:57:21;;;;;;;53.80;24.40;;;;;;;2.74;60.02;99836.09;231248;1229;139344;-62
2022/02/24 04:02:24;;;;;;;56.30;24.30;;;;;;;2.69;59.57;99832.83;231190;1228;139456;-61
2022/02/24 04:07:27;;;;;;;57.30;27.90;;;;;;;2.63;59.39;99838.03;231352;1229;139683;-61
2022/02/24 04:12:30;;;;;;;60.80;27.60;;;;;;;2.66;59.94;99826.95;231223;1229;139954;-61
2022/02/24 04:17:35;;;;;;;58.40;24.60;;;;;;;2.75;59.79;99817.15;231243;1228;138583;-63
2022/02/24 04:22:38;;;;;;;56.80;24.70;;;;;;;2.69;59.66;99815.50;231263;1229;139672;-62
2022/02/24 04:27:45;;;;;;;;;;;;;;;2.63;59.92;99814.73;231327;1229;138839;-64
2022/02/24 04:32:49;;;;;;;60.70;24.60;;;;;;;2.57;59.68;99814.84;231339;1229;125670;-63
2022/02/24 04:37:52;;;;;;;77.70;41.30;;;;;;;2.50;59.88;99819.84;231336;1228;138877;-64
2022/02/24 04:42:55;;;;;;;59.50;25.70;;;;;;;2.51;60.15;99818.27;231350;1229;139184;-64
2022/02/24 04:47:58;;;;;;;62.70;26.30;;;;;;;2.42;59.91;99818.05;231256;1229;138997;-64
2022/02/24 04:53:01;;;;;;;57.00;24.30;;;;;;;2.31;59.80;99805.45;231210;1229;139571;-64
2022/02/24 04:58:04;;;;;;;56.70;24.60;;;;;;;2.24;59.96;99806.45;231311;1228;138943;-64
2022/02/24 05:03:07;;;;;;;55.80;23.70;;;;;;;2.25;60.21;99804.16;231221;1230;139151;-62
2022/02/24 05:08:10;;;;;;;61.90;25.80;;;;;;;2.22;60.19;99799.48;231307;1230;138911;-64
2022/02/24 05:13:13;;;;;;;57.40;25.40;;;;;;;2.18;60.25;99800.95;231203;1228;138841;-65
2022/02/24 05:18:16;;;;;;;62.70;25.20;;;;;;;2.12;60.22;99794.73;231247;1229;139419;-62
2022/02/24 05:23:19;;;;;;;57.10;25.20;;;;;;;2.04;60.27;99792.58;231216;1229;139001;-65
2022/02/24 05:28:22;;;;;;;58.10;25.50;;;;;;;1.99;60.50;99786.19;231245;1229;139220;-63
2022/02/24 05:33:30;;;;;;;55.80;24.80;;;;;;;1.91;60.44;99782.27;231187;1229;139575;-64
2022/02/24 05:38:33;;;;;;;58.00;27.20;;;;;;;1.84;60.74;99782.02;231231;1228;138999;-64
2022/02/24 05:43:36;;;;;;;61.20;26.00;;;;;;;1.84;60.66;99781.14;231315;1229;139666;-62
2022/02/24 05:48:39;;;;;;;57.70;26.10;;;;;;;1.88;61.08;99779.86;231267;1228;139054;-64
2022/02/24 05:53:42;;;;;;;57.60;27.30;;;;;;;1.94;61.16;99779.79;231158;1229;138983;-65
2022/02/24 05:58:45;;;;;;;61.90;27.10;;;;;;;1.96;61.15;99775.38;231160;1230;139247;-59
2022/02/24 06:03:48;;;;;;;59.00;27.50;;;;;;;1.96;61.15;99776.25;231142;1229;139707;-64
2022/02/24 06:08:51;;;;;;;53.90;26.50;;;;;;;1.98;61.41;99777.11;231232;1228;139123;-63
2022/02/24 06:13:54;;;;;;;58.70;26.30;;;;;;;1.97;61.41;99778.69;231353;1229;139382;-63
2022/02/24 06:18:57;;;;;;;55.50;25.20;;;;;;;1.96;61.52;99773.10;231195;1228;139983;-63
2022/02/24 06:24:00;;;;;;;55.20;26.90;;;;;;;1.97;61.60;99776.06;231182;1228;139223;-63
2022/02/24 06:29:03;;;;;;;54.00;25.00;;;;;;;2.00;61.75;99768.48;231280;1228;139092;-66
2022/02/24 06:34:07;;;;;;;48.80;25.30;;;;;;;2.03;61.93;99760.23;231248;1228;138655;-65
2022/02/24 06:39:09;;;;;;;60.70;27.40;;;;;;;2.07;61.91;99754.39;231234;1229;139248;-64
2022/02/24 06:44:14;;;;;;;59.60;28.10;;;;;;;2.14;62.08;99752.34;231337;1228;139657;-64
2022/02/24 06:49:17;;;;;;;58.40;26.70;;;;;;;2.22;62.41;99753.44;231250;1229;139012;-65
2022/02/24 06:54:20;;;;;;;56.90;25.70;;;;;;;2.32;62.23;99747.31;231190;1229;138756;-63
2022/02/24 06:59:23;;;;;;;52.30;24.40;;;;;;;2.47;62.39;99746.35;231267;1229;141625;-65
2022/02/24 07:04:26;;;;;;;53.50;25.10;;;;;;;2.64;62.50;99742.89;231381;1228;140029;-66
2022/02/24 07:09:31;;;;;;;53.60;22.80;;;;;;;2.83;62.53;99744.27;231224;1228;141165;-65
2022/02/24 07:14:34;;;;;;;47.60;22.00;;;;;;;3.05;62.55;99745.26;231225;1228;138830;-66
2022/02/24 07:19:37;;;;;;;47.80;20.10;;;;;;;3.27;62.45;99743.40;231397;1228;139862;-61
2022/02/24 07:24:40;;;;;;;49.80;20.60;;;;;;;3.47;62.50;99734.91;231233;1229;139119;-62
2022/02/24 07:29:44;;;;;;;50.40;21.50;;;;;;;3.66;62.22;99730.27;231254;1228;139026;-64
2022/02/24 07:34:47;;;;;;;49.50;22.10;;;;;;;3.83;61.96;99726.87;231245;1229;139481;-65
2022/02/24 07:39:50;;;;;;;47.50;21.20;;;;;;;3.99;61.93;99717.54;231248;1229;139218;-67
2022/02/24 07:44:54;;;;;;;46.50;20.70;;;;;;;4.14;61.79;99712.79;231222;1229;138984;-65
2022/02/24 07:49:59;;;;;;;52.00;21.60;;;;;;;4.25;61.52;99701.95;231333;1228;138447;-65
2022/02/24 07:55:02;;;;;;;44.10;19.60;;;;;;;4.41;61.47;99698.41;231044;1229;139520;-64
2022/02/24 08:00:07;;;;;;;42.60;18.00;;;;;;;4.55;61.41;99690.47;231314;1227;139167;-61
2022/02/24 08:05:11;;;;;;;40.60;17.00;;;;;;;4.73;61.38;99679.59;231231;1229;139343;-61
2022/02/24 08:10:14;;;;;;;29.60;12.20;;;;;;;4.91;61.18;99674.67;231227;1228;139137;-62
2022/02/24 08:15:22;;;;;;;20.50;8.90;;;;;;;5.11;60.93;99670.79;231245;1229;140272;-61
2022/02/24 08:20:25;;;;;;;27.40;7.30;;;;;;;5.32;60.71;99666.10;231266;1229;138722;-66
2022/02/24 08:25:28;;;;;;;18.20;6.00;;;;;;;5.56;60.28;99656.73;231332;1229;139072;-63
2022/02/24 08:30:31;;;;;;;16.30;5.70;;;;;;;5.80;60.01;99644.86;231282;1228;138614;-62
2022/02/24 08:35:36;;;;;;;17.40;5.10;;;;;;;6.02;59.51;99634.65;231139;1228;233304;-62
2022/02/24 08:40:39;;;;;;;16.00;5.30;;;;;;;6.21;59.17;99627.13;231229;1229;138789;-63
2022/02/24 08:45:43;;;;;;;16.70;4.60;;;;;;;6.43;58.85;99614.89;231223;1228;138981;-62
2022/02/24 08:50:46;;;;;;;12.20;4.60;;;;;;;6.62;58.19;99605.40;231246;1228;138804;-62
2022/02/24 08:55:55;;;;;;;12.10;4.40;;;;;;;6.79;58.15;99596.14;231336;1229;139131;-61
2022/02/24 09:00:58;;;;;;;10.90;4.50;;;;;;;6.92;57.64;99592.81;231258;1229;139114;-63
2022/02/24 09:06:02;;;;;;;12.90;3.90;;;;;;;7.12;57.20;99581.98;231267;1228;139093;-61
2022/02/24 09:11:05;;;;;;;17.40;4.40;;;;;;;7.26;56.30;99570.30;231159;1228;138852;-62
2022/02/24 09:16:09;;;;;;;15.20;4.50;;;;;;;7.41;56.30;99557.20;231201;1229;139346;-62
2022/02/24 09:21:13;;;;;;;11.40;4.00;;;;;;;7.54;55.97;99545.15;231245;1229;138837;-61
2022/02/24 09:26:19;;;;;;;12.20;4.30;;;;;;;7.71;55.73;99534.22;231346;1229;139135;-63
2022/02/24 09:31:23;;;;;;;17.10;4.30;;;;;;;7.89;55.57;99521.64;231257;1228;139240;-66
2022/02/24 09:36:26;;;;;;;12.30;4.50;;;;;;;8.04;55.29;99519.88;231188;1228;139353;-63
2022/02/24 09:41:29;;;;;;;15.70;4.60;;;;;;;8.17;54.97;99516.13;231247;1229;138686;-62
2022/02/24 09:46:34;;;;;;;9.90;4.40;;;;;;;8.34;54.28;99509.75;231214;1229;139697;-63
2022/02/24 09:51:38;;;;;;;14.20;4.50;;;;;;;8.48;54.34;99501.16;231218;1228;140079;-64
2022/02/24 09:56:43;;;;;;;12.90;4.30;;;;;;;8.58;53.87;99490.63;231259;1229;139069;-62
2022/02/24 10:01:46;;;;;;;11.60;4.10;;;;;;;8.69;53.70;99474.52;231363;1229;139594;-62
2022/02/24 10:06:49;;;;;;;11.10;4.30;;;;;;;8.83;53.66;99464.68;231315;1228;138947;-63
2022/02/24 10:12:10;;;;;;;9.70;4.00;;;;;;;8.96;53.15;99445.81;231123;1228;138224;-62
2022/02/24 10:17:15;;;;;;;10.50;4.40;;;;;;;9.16;52.73;99440.02;231220;1228;138709;-61
2022/02/24 10:22:26;;;;;;;87.40;44.90;;;;;;;9.34;52.45;99428.54;231204;1228;138959;-62
2022/02/24 10:27:38;;;;;;;11.30;4.30;;;;;;;9.61;52.52;99408.33;231118;1229;140884;-61
2022/02/24 10:32:50;;;;;;;10.00;3.70;;;;;;;9.87;52.15;99394.59;231186;1229;139528;-61
2022/02/24 10:38:08;;;;;;;12.70;3.80;;;;;;;10.08;51.49;99380.83;231261;1229;139074;-60
2022/02/24 10:43:11;;;;;;;8.50;3.40;;;;;;;10.31;51.37;99374.86;231189;1228;140295;-62
2022/02/24 10:48:14;;;;;;;12.80;3.70;;;;;;;10.58;51.05;99358.96;230998;1229;139316;-61
2022/02/24 10:53:19;;;;;;;11.00;3.30;;;;;;;10.88;50.50;99345.84;231121;1228;139475;-61
2022/02/24 10:58:50;;;;;;;9.30;3.30;;;;;;;11.12;50.19;99333.77;231190;1229;139206;-60
2022/02/24 11:04:00;;;;;;;12.60;3.60;;;;;;;11.38;49.54;99323.38;231360;1228;139097;-61
2022/02/24 11:09:06;;;;;;;97.80;58.70;;;;;;;11.57;49.13;99307.61;231207;1228;140920;-63
2022/02/24 11:14:10;;;;;;;13.70;4.80;;;;;;;11.80;48.87;99302.82;231307;1230;139971;-62
2022/02/24 11:19:16;;;;;;;13.80;3.60;;;;;;;11.95;48.12;99291.77;231200;1229;140014;-60
2022/02/24 11:24:21;;;;;;;8.40;3.30;;;;;;;12.05;47.53;99281.34;231279;1228;139175;-62
2022/02/24 11:29:42;;;;;;;7.20;3.10;;;;;;;12.14;47.01;99272.60;231169;1228;139441;-62
2022/02/24 11:35:06;;;;;;;8.80;3.20;;;;;;;12.19;46.43;99260.88;231183;1229;140024;-62
2022/02/24 11:40:22;;;;;;;9.10;3.10;;;;;;;12.23;46.08;99260.96;231142;1228;140082;-59
2022/02/24 11:45:25;;;;;;;45.80;26.60;;;;;;;12.35;47.76;99253.05;231280;1228;139633;-59
2022/02/24 11:50:35;;;;;;;7.00;3.10;;;;;;;13.46;49.94;99240.90;231242;1229;139402;-57
2022/02/24 11:55:48;;;;;;;6.20;2.90;;;;;;;13.64;46.74;99223.18;231408;1229;138809;-58
2022/02/24 12:01:12;;;;;;;7.40;2.90;;;;;;;13.65;44.71;99211.38;231340;1228;139179;-58
2022/02/24 12:06:18;;;;;;;5.90;2.30;;;;;;;13.56;43.38;99191.33;231376;1228;139482;-57
2022/02/24 12:11:34;;;;;;;5.90;2.40;;;;;;;13.64;43.50;99187.86;231213;1228;139670;-59
2022/02/24 12:16:37;;;;;;;5.50;2.30;;;;;;;13.83;43.15;99179.23;231247;1229;139609;-57
2022/02/24 12:21:43;;;;;;;7.80;2.70;;;;;;;14.08;42.84;99164.14;231229;1229;138617;-58
2022/02/24 12:26:49;;;;;;;7.30;2.50;;;;;;;14.23;42.10;99154.65;231276;1229;139644;-57
2022/02/24 12:31:59;;;;;;;8.90;2.50;;;;;;;14.39;41.61;99151.27;231441;1229;139204;-59
2022/02/24 12:37:09;;;;;;;4.00;2.40;;;;;;;14.45;40.49;99138.02;231319;1229;138917;-58
2022/02/24 12:42:14;;;;;;;5.60;2.30;;;;;;;14.39;39.97;99133.24;231272;1229;139680;-59
2022/02/24 12:47:17;;;;;;;5.00;2.20;;;;;;;14.38;39.59;99126.77;231273;1229;139276;-58
2022/02/24 12:52:22;;;;;;;7.50;2.60;;;;;;;14.28;38.60;99123.56;231239;1229;140288;-58
2022/02/24 12:57:26;;;;;;;6.40;2.70;;;;;;;14.27;38.39;99110.05;231233;1229;138921;-58
2022/02/24 13:02:29;;;;;;;4.10;2.60;;;;;;;14.33;37.87;99103.23;231226;1229;139786;-57
2022/02/24 13:13:07;;;;;;;5.20;2.40;;;;;;;14.41;37.64;99077.91;230715;1230;139920;-57
2022/02/24 13:18:10;;;;;;;8.90;2.70;;;;;;;14.51;37.11;99067.61;231274;1229;138991;-59
2022/02/24 13:23:13;;;;;;;4.80;2.10;;;;;;;14.67;36.82;99059.05;231209;1229;138995;-60
2022/02/24 13:28:22;;;;;;;6.20;2.70;;;;;;;14.76;36.78;99040.43;231240;1230;139887;-58
2022/02/24 13:33:39;;;;;;;7.70;2.20;;;;;;;14.74;36.26;99028.09;231222;1229;139381;-58
2022/02/24 13:38:46;;;;;;;5.90;2.60;;;;;;;14.61;36.15;99022.51;231291;1229;139859;-59
2022/02/24 13:43:49;;;;;;;5.60;2.40;;;;;;;14.50;36.15;99018.95;231320;1228;139106;-58
2022/02/24 13:48:52;;;;;;;5.50;2.80;;;;;;;14.39;35.91;99014.75;231057;1228;138763;-59
2022/02/24 13:53:57;;;;;;;5.50;2.30;;;;;;;14.26;35.83;99010.05;231036;1228;139160;-58
2022/02/24 13:59:00;;;;;;;6.50;2.40;;;;;;;14.12;35.78;98999.04;231282;1228;139144;-59
2022/02/24 14:04:07;;;;;;;5.50;2.20;;;;;;;13.95;35.47;98984.45;231333;1228;139289;-59
2022/02/24 14:09:25;;;;;;;8.30;2.70;;;;;;;13.82;35.45;98977.23;231248;1228;139604;-58
2022/02/24 14:14:28;;;;;;;8.30;2.50;;;;;;;13.70;35.09;98967.59;231243;1229;139328;-59
2022/02/24 14:19:31;;;;;;;6.50;2.20;;;;;;;13.63;35.42;98967.94;231388;1230;139088;-58
2022/02/24 14:24:37;;;;;;;9.80;2.50;;;;;;;13.51;34.93;98956.06;231281;1229;140664;-59
2022/02/24 14:29:40;;;;;;;7.00;2.60;;;;;;;13.40;35.33;98943.48;231270;1230;138940;-59
2022/02/24 14:34:43;;;;;;;6.60;2.80;;;;;;;13.32;35.07;98943.02;231432;1228;139650;-59
2022/02/24 14:39:46;;;;;;;8.60;2.60;;;;;;;13.23;35.23;98929.08;231309;1229;139368;-57
2022/02/24 14:44:48;;;;;;;6.90;2.70;;;;;;;13.17;35.20;98917.05;231274;1229;139111;-58
2022/02/24 14:49:52;;;;;;;9.40;2.50;;;;;;;13.08;35.15;98905.41;231410;1228;139089;-59
2022/02/24 14:54:55;;;;;;;5.60;2.40;;;;;;;13.00;35.12;98898.91;231264;1230;139020;-59
2022/02/24 14:59:59;;;;;;;55.00;30.80;;;;;;;12.93;35.03;98892.63;231183;1228;140091;-59
2022/02/24 15:05:02;;;;;;;8.80;2.40;;;;;;;13.21;37.42;98882.58;231236;1230;139454;-59
2022/02/24 15:10:06;;;;;;;5.50;2.30;;;;;;;13.24;35.43;98875.05;231198;1228;140525;-59
2022/02/24 15:15:12;;;;;;;6.90;2.20;;;;;;;13.09;35.06;98879.36;231110;1230;138867;-59
2022/02/24 15:20:19;;;;;;;3.20;1.70;;;;;;;12.92;34.68;98867.09;231267;1229;138873;-59
2022/02/24 15:25:22;;;;;;;6.00;1.90;;;;;;;12.76;34.71;98872.88;231694;1230;139043;-59
2022/02/24 15:30:25;;;;;;;7.10;2.20;;;;;;;12.61;34.43;98871.67;231763;1229;139230;-58
2022/02/24 15:35:28;;;;;;;7.20;2.30;;;;;;;12.52;34.64;98876.59;231716;1228;139214;-58
2022/02/24 15:40:31;;;;;;;8.00;2.30;;;;;;;12.40;34.11;98873.77;231768;1228;138844;-59
2022/02/24 15:45:35;;;;;;;12.60;4.70;;;;;;;12.32;34.57;98870.94;231714;1229;140729;-60
2022/02/24 15:50:38;;;;;;;5.20;2.70;;;;;;;12.28;34.63;98870.30;231758;1228;139679;-59
2022/02/24 15:55:41;;;;;;;6.40;2.70;;;;;;;12.20;34.37;98862.89;231843;1229;138667;-59
2022/02/24 16:00:44;;;;;;;8.00;2.40;;;;;;;12.09;34.54;98848.58;231741;1230;139421;-59
2022/02/24 16:05:48;;;;;;;7.30;2.60;;;;;;;12.01;34.47;98846.50;231670;1230;138765;-59
2022/02/24 16:11:06;;;;;;;6.40;2.80;;;;;;;11.90;34.40;98841.90;231712;1228;139440;-59
2022/02/24 16:16:09;;;;;;;6.40;2.80;;;;;;;11.82;34.43;98841.98;231716;1228;138885;-56
2022/02/24 16:21:13;;;;;;;6.00;2.80;;;;;;;11.74;34.50;98841.93;231677;1230;139321;-58
2022/02/24 16:26:16;;;;;;;8.50;3.20;;;;;;;11.65;34.39;98838.84;231874;1229;139287;-58
2022/02/24 16:31:27;;;;;;;10.00;4.20;;;;;;;11.53;34.41;98836.13;231780;1228;138875;-58
2022/02/24 16:36:41;;;;;;;8.20;3.80;;;;;;;11.44;34.48;98828.45;231729;1229;139174;-56
2022/02/24 16:41:45;;;;;;;7.40;3.50;;;;;;;11.36;34.61;98819.21;231763;1229;138918;-58
2022/02/24 16:46:48;;;;;;;9.10;3.80;;;;;;;11.26;34.53;98833.52;231377;1230;139746;-56
2022/02/24 16:51:51;;;;;;;12.70;4.50;;;;;;;11.18;34.72;98832.19;231702;1229;138775;-58
2022/02/24 16:56:55;;;;;;;9.60;3.80;;;;;;;11.11;34.61;98831.55;231756;1228;139108;-57
2022/02/24 17:02:10;;;;;;;11.50;3.80;;;;;;;11.05;34.66;98834.27;231830;1230;139042;-60
2022/02/24 17:07:14;;;;;;;250.60;143.40;;;;;;;10.96;34.77;98832.38;231728;1229;139182;-55
2022/02/24 17:12:17;;;;;;;18.40;7.70;;;;;;;10.96;35.02;98835.41;231702;1229;140111;-58
2022/02/24 17:17:20;;;;;;;11.50;4.40;;;;;;;10.92;34.83;98824.84;231711;1227;139994;-58
2022/02/24 17:22:24;;;;;;;16.40;4.90;;;;;;;10.86;34.81;98819.89;231739;1229;138547;-58
2022/02/24 17:27:27;;;;;;;10.80;4.40;;;;;;;10.78;34.69;98822.95;231765;1230;138695;-59
2022/02/24 17:32:30;;;;;;;12.20;4.10;;;;;;;10.72;34.88;98811.63;231665;1229;139617;-57
2022/02/24 17:37:33;;;;;;;11.60;3.90;;;;;;;10.67;34.84;98802.52;231857;1228;138755;-58
2022/02/24 17:42:36;;;;;;;7.90;3.60;;;;;;;10.63;34.69;98804.60;231728;1229;138879;-58
2022/02/24 17:47:39;;;;;;;118.30;79.20;;;;;;;10.60;35.06;98804.24;231752;1229;139020;-56
2022/02/24 17:52:42;;;;;;;16.50;7.00;;;;;;;10.68;35.26;98807.29;231740;1228;139728;-58
2022/02/24 17:57:49;;;;;;;10.30;4.80;;;;;;;10.62;35.15;98811.59;231719;1229;139658;-57
2022/02/24 18:02:52;;;;;;;14.00;4.30;;;;;;;10.48;35.20;98813.02;231770;1229;140839;-58
2022/02/24 18:07:55;;;;;;;15.80;5.20;;;;;;;10.34;35.25;98813.23;231799;1228;139706;-57
2022/02/24 18:13:00;;;;;;;17.20;4.90;;;;;;;10.21;35.26;98810.67;231768;1228;139270;-56
2022/02/24 18:18:03;;;;;;;20.30;5.50;;;;;;;10.12;35.41;98815.86;231721;1228;138545;-58
2022/02/24 18:23:06;;;;;;;15.20;5.80;;;;;;;10.06;35.65;98806.13;231756;1228;138972;-58
2022/02/24 18:28:09;;;;;;;16.70;5.40;;;;;;;10.02;35.53;98801.43;231686;1228;139422;-58
2022/02/24 18:33:12;;;;;;;13.10;5.70;;;;;;;9.96;35.62;98800.91;231658;1229;139277;-58
2022/02/24 18:38:15;;;;;;;209.40;143.50;;;;;;;9.93;36.34;98795.26;231819;1228;139297;-58
2022/02/24 18:43:18;;;;;;;23.60;10.50;;;;;;;10.04;36.57;98789.60;231729;1229;138941;-57
2022/02/24 18:48:21;;;;;;;26.80;7.10;;;;;;;10.04;36.39;98786.06;231710;1228;141027;-58
2022/02/24 18:53:25;;;;;;;25.60;7.40;;;;;;;9.92;36.31;98785.36;231445;1228;138839;-60
2022/02/24 18:58:28;;;;;;;378.60;260.00;;;;;;;9.81;36.66;98782.90;231218;1229;141266;-56
2022/02/24 19:03:31;;;;;;;25.20;9.80;;;;;;;9.83;37.15;98784.19;231224;1229;139304;-60
2022/02/24 19:08:54;;;;;;;23.40;7.40;;;;;;;9.67;37.24;98781.64;231178;1230;139219;-60
2022/02/24 19:13:57;;;;;;;21.90;7.20;;;;;;;9.42;37.41;98774.52;231298;1229;138929;-61
2022/02/24 19:19:00;;;;;;;21.50;7.80;;;;;;;9.17;37.20;98771.95;231227;1229;138923;-61
2022/02/24 19:24:07;;;;;;;25.80;7.40;;;;;;;8.93;37.73;98771.28;231223;1228;139203;-61
2022/02/24 19:29:11;;;;;;;29.50;7.10;;;;;;;8.74;38.18;98768.55;231224;1229;138931;-61
2022/02/24 19:34:15;;;;;;;23.80;6.90;;;;;;;8.56;38.83;98769.23;231222;1228;138892;-61
2022/02/24 19:39:20;;;;;;;30.00;7.50;;;;;;;8.36;39.22;98772.83;231188;1229;140754;-61
2022/02/24 19:44:25;;;;;;;20.80;6.90;;;;;;;8.18;39.72;98777.54;231210;1228;139755;-62
2022/02/24 19:49:31;;;;;;;23.00;6.90;;;;;;;8.05;39.63;98774.05;231176;1228;139057;-60
2022/02/24 19:54:34;;;;;;;25.50;6.90;;;;;;;7.95;39.75;98771.62;231115;1228;138570;-61
2022/02/24 19:59:37;;;;;;;30.70;8.20;;;;;;;7.83;40.13;98767.33;231186;1229;139974;-61
2022/02/24 20:04:40;;;;;;;31.40;7.80;;;;;;;7.71;40.28;98768.90;231169;1229;139107;-59
2022/02/24 20:09:43;;;;;;;27.60;8.20;;;;;;;7.57;40.38;98766.98;231148;1228;139176;-60
2022/02/24 20:14:46;;;;;;;36.10;8.60;;;;;;;7.45;40.92;98764.60;231189;1229;138547;-62
2022/02/24 20:19:49;;;;;;;23.70;7.30;;;;;;;7.32;41.15;98759.11;231343;1228;139835;-62
2022/02/24 20:24:52;;;;;;;30.40;8.10;;;;;;;7.23;41.31;98764.37;231258;1229;138567;-61
2022/02/24 20:29:56;;;;;;;29.40;8.70;;;;;;;7.13;41.87;98758.20;231225;1228;140446;-61
2022/02/24 20:35:02;;;;;;;29.20;7.90;;;;;;;7.05;41.99;98762.30;231292;1229;139374;-61
2022/02/24 20:40:05;;;;;;;27.00;8.00;;;;;;;7.00;42.22;98760.48;231206;1229;138868;-60
2022/02/24 20:45:09;;;;;;;25.20;7.70;;;;;;;6.96;42.69;98755.75;231274;1228;138673;-61
2022/02/24 20:50:13;;;;;;;29.20;8.30;;;;;;;6.91;42.94;98752.33;231387;1229;139124;-61
2022/02/24 20:55:16;;;;;;;29.40;7.90;;;;;;;6.82;43.89;98754.52;231265;1229;139001;-61
2022/02/24 21:00:19;;;;;;;25.50;7.80;;;;;;;6.76;43.99;98758.51;231347;1229;138814;-61
2022/02/24 21:05:22;;;;;;;24.30;7.90;;;;;;;6.70;44.23;98764.86;231246;1229;139915;-60
2022/02/24 21:10:25;;;;;;;27.30;7.70;;;;;;;6.68;44.29;98751.35;231227;1228;138931;-62
2022/02/24 21:15:29;;;;;;;28.00;9.00;;;;;;;6.66;44.73;98745.10;231250;1229;138219;-57
2022/02/24 21:20:34;;;;;;;32.10;8.90;;;;;;;6.61;44.89;98743.06;231234;1229;139493;-61
2022/02/24 21:25:40;;;;;;;31.60;10.80;;;;;;;6.56;45.32;98741.04;231382;1228;138568;-60
2022/02/24 21:30:43;;;;;;;53.30;12.50;;;;;;;6.50;45.36;98751.42;231236;1229;139648;-62
2022/02/24 21:35:47;;;;;;;48.30;12.00;;;;;;;6.42;45.88;98754.77;231280;1229;139056;-61
2022/02/24 21:40:50;;;;;;;36.40;11.70;;;;;;;6.37;45.74;98758.02;231238;1229;138971;-61
2022/02/24 21:45:54;;;;;;;45.30;12.70;;;;;;;6.35;45.78;98753.19;231257;1228;139518;-59
2022/02/24 21:50:58;;;;;;;35.60;12.40;;;;;;;6.35;45.88;98756.02;231230;1229;139081;-59
2022/02/24 21:56:01;;;;;;;36.00;11.00;;;;;;;6.32;46.04;98762.35;231451;1228;138875;-60
2022/02/24 22:01:04;;;;;;;28.20;10.00;;;;;;;6.29;45.95;98761.75;231355;1230;139459;-60
2022/02/24 22:06:10;;;;;;;26.00;9.60;;;;;;;6.27;46.21;98758.48;231268;1228;138728;-60
2022/02/24 22:11:13;;;;;;;21.30;8.90;;;;;;;6.30;46.06;98765.78;231246;1228;138731;-61
2022/02/24 22:16:16;;;;;;;31.70;11.80;;;;;;;6.49;45.90;98760.95;231262;1229;138835;-59
2022/02/24 22:21:19;;;;;;;27.10;9.80;;;;;;;6.58;45.96;98754.17;231246;1229;140210;-63
2022/02/24 22:26:22;;;;;;;31.90;14.20;;;;;;;6.57;46.27;98737.80;231374;1228;139237;-62
2022/02/24 22:31:25;;;;;;;30.60;9.50;;;;;;;6.56;46.36;98735.06;231274;1229;139114;-64
2022/02/24 22:36:28;;;;;;;28.30;9.70;;;;;;;6.60;46.00;98726.21;231280;1228;138853;-61
2022/02/24 22:41:32;;;;;;;30.00;10.30;;;;;;;6.62;45.93;98713.22;231239;1229;138753;-61
2022/02/24 22:46:35;;;;;;;43.20;10.00;;;;;;;6.63;46.13;98722.02;231257;1228;140040;-60
2022/02/24 22:51:38;;;;;;;31.10;9.50;;;;;;;6.60;45.70;98727.13;231146;1228;139054;-58
2022/02/24 22:56:41;;;;;;;26.30;9.50;;;;;;;6.57;46.02;98724.63;231299;1228;139043;-60
2022/02/24 23:01:44;;;;;;;29.90;9.90;;;;;;;6.53;46.05;98728.49;231356;1228;138605;-60
2022/02/24 23:06:48;;;;;;;21.30;8.90;;;;;;;6.50;46.15;98732.17;231254;1228;140728;-61
2022/02/24 23:11:51;;;;;;;19.40;8.40;;;;;;;6.46;46.33;98735.59;231258;1228;139236;-60
2022/02/24 23:16:54;;;;;;;19.50;8.10;;;;;;;6.43;46.19;98736.08;231284;1229;138443;-61
2022/02/24 23:21:57;;;;;;;16.80;7.10;;;;;;;6.42;46.28;98733.48;231270;1229;139466;-60